createdAt,value
2018-01-27T00:00:34.451Z,43.86
2018-01-27T00:01:43.281Z,43.48
2018-01-27T00:02:52.112Z,44.81
2018-01-27T00:04:00.944Z,44.62
2018-01-27T00:05:09.774Z,44.24
2018-01-27T00:06:19.154Z,44.43
2018-01-27T00:07:27.985Z,45.38
2018-01-27T00:08:36.812Z,44.24
2018-01-27T00:09:45.642Z,44.9
2018-01-27T00:10:54.474Z,44.62
2018-01-27T00:12:03.306Z,44.53
2018-01-27T00:13:12.137Z,44.71
2018-01-27T00:14:21.239Z,44.24
2018-01-27T00:15:30.170Z,45.19
2018-01-27T00:16:39.000Z,45.19
2018-01-27T00:17:47.831Z,45.19
2018-01-27T00:18:56.662Z,44.81
2018-01-27T00:20:05.501Z,44.34
2018-01-27T00:21:14.603Z,44.05
2018-01-27T00:22:23.435Z,44.05
2018-01-27T00:23:32.265Z,43.76
2018-01-27T00:24:41.094Z,43.57
2018-01-27T00:25:49.923Z,43.38
2018-01-27T00:26:58.906Z,43.67
2018-01-27T00:28:07.737Z,43.38
2018-01-27T00:29:16.844Z,43.57
2018-01-27T00:30:25.674Z,43.1
2018-01-27T00:31:34.506Z,43.38
2018-01-27T00:32:43.391Z,43.38
2018-01-27T00:33:52.216Z,43.38
2018-01-27T00:35:01.045Z,43.67
2018-01-27T00:36:09.874Z,43.86
2018-01-27T00:37:18.704Z,43.67
2018-01-27T00:38:27.533Z,43.95
2018-01-27T00:39:36.637Z,43.67
2018-01-27T00:40:45.468Z,43.57
2018-01-27T00:41:54.298Z,44.14
2018-01-27T00:43:03.130Z,44.34
2018-01-27T00:44:12.260Z,43.86
2018-01-27T00:45:21.137Z,43.57
2018-01-27T00:46:29.921Z,44.14
2018-01-27T00:47:38.749Z,43.95
2018-01-27T00:48:47.579Z,44.14
2018-01-27T00:49:56.410Z,43.5
2018-01-27T00:51:05.240Z,44.05
2018-01-27T00:52:14.072Z,44.34
2018-01-27T00:53:22.901Z,44.71
2018-01-27T00:54:31.732Z,43.76
2018-01-27T00:55:40.663Z,43.67
2018-01-27T00:56:49.767Z,43.29
2018-01-27T00:57:58.599Z,43.67
2018-01-27T00:59:07.431Z,43.86
2018-01-27T01:00:16.262Z,42.72
2018-01-27T01:01:25.293Z,43.41
2018-01-27T01:02:34.122Z,43.57
2018-01-27T01:03:42.954Z,43.48
2018-01-27T01:04:51.784Z,43.48
2018-01-27T01:06:00.617Z,43.67
2018-01-27T01:07:09.701Z,44.05
2018-01-27T01:08:18.529Z,43.38
2018-01-27T01:09:27.358Z,43.48
2018-01-27T01:10:36.189Z,43.38
2018-01-27T01:11:45.020Z,43.29
2018-01-27T01:12:54.150Z,43.29
2018-01-27T01:14:03.253Z,43.29
2018-01-27T01:15:12.083Z,43.57
2018-01-27T01:16:21.188Z,44.05
2018-01-27T01:17:30.025Z,42.63
2018-01-27T01:18:39.377Z,43.01
2018-01-27T01:19:48.206Z,43.29
2018-01-27T01:20:57.036Z,43.67
2018-01-27T01:22:05.869Z,43.48
2018-01-27T01:23:14.700Z,43.29
2018-01-27T01:24:24.007Z,43.38
2018-01-27T01:25:32.838Z,43.95
2018-01-27T01:26:41.667Z,42.82
2018-01-27T01:27:50.496Z,43.76
2018-01-27T01:28:59.330Z,43.95
2018-01-27T01:30:08.538Z,43.29
2018-01-27T01:31:17.369Z,43.01
2018-01-27T01:32:26.198Z,43.48
2018-01-27T01:33:35.033Z,43.38
2018-01-27T01:34:43.862Z,43.48
2018-01-27T01:35:53.594Z,43.57
2018-01-27T01:37:02.424Z,43.19
2018-01-27T01:38:11.255Z,42.82
2018-01-27T01:39:20.086Z,42.91
2018-01-27T01:40:28.915Z,43.29
2018-01-27T01:41:38.045Z,43.19
2018-01-27T01:42:46.879Z,43.29
2018-01-27T01:43:55.710Z,42.91
2018-01-27T01:45:04.821Z,43.29
2018-01-27T01:46:13.650Z,43.57
2018-01-27T01:47:22.481Z,43.29
2018-01-27T01:48:31.312Z,43.67
2018-01-27T01:49:40.143Z,43.76
2018-01-27T01:50:48.979Z,44.14
2018-01-27T01:51:57.805Z,43.67
2018-01-27T01:53:06.934Z,43.48
2018-01-27T01:54:16.046Z,42.72
2018-01-27T01:55:25.151Z,42.72
2018-01-27T01:56:33.983Z,43.01
2018-01-27T01:57:42.814Z,43.67
2018-01-27T01:58:52.046Z,43.38
2018-01-27T02:00:00.875Z,43.57
2018-01-27T02:01:09.706Z,43.67
2018-01-27T02:02:18.538Z,42.91
2018-01-27T02:03:27.389Z,43.01
2018-01-27T02:04:36.217Z,43.67
2018-01-27T02:05:45.048Z,43.48
2018-01-27T02:06:53.877Z,43.38
2018-01-27T02:08:02.706Z,43.57
2018-01-27T02:09:11.538Z,43.67
2018-01-27T02:10:21.169Z,44.05
2018-01-27T02:11:30.001Z,43.95
2018-01-27T02:12:38.833Z,43.95
2018-01-27T02:13:47.660Z,43.67
2018-01-27T02:14:56.489Z,43.67
2018-01-27T02:16:05.323Z,43.38
2018-01-27T02:17:14.154Z,43.57
2018-01-27T02:18:22.984Z,43.76
2018-01-27T02:19:31.815Z,43.57
2018-01-27T02:20:40.647Z,43.38
2018-01-27T02:21:49.776Z,43.48
2018-01-27T02:22:58.607Z,43.57
2018-01-27T02:24:07.432Z,43.38
2018-01-27T02:25:16.262Z,43.67
2018-01-27T02:26:25.094Z,43.29
2018-01-27T02:27:35.180Z,43.38
2018-01-27T02:28:44.284Z,43.29
2018-01-27T02:29:53.114Z,42.91
2018-01-27T02:31:01.943Z,43.01
2018-01-27T02:32:10.776Z,43.48
2018-01-27T02:33:19.607Z,43.1
2018-01-27T02:34:28.437Z,42.91
2018-01-27T02:35:37.269Z,43.48
2018-01-27T02:36:46.100Z,42.53
2018-01-27T02:37:54.928Z,43.01
2018-01-27T02:39:03.758Z,42.72
2018-01-27T02:40:12.589Z,43.48
2018-01-27T02:41:21.422Z,42.82
2018-01-27T02:42:30.526Z,43.01
2018-01-27T02:43:39.680Z,43.38
2018-01-27T02:44:48.464Z,43.48
2018-01-27T02:45:57.295Z,42.72
2018-01-27T02:47:06.124Z,42.72
2018-01-27T02:48:14.956Z,42.82
2018-01-27T02:49:23.785Z,42.63
2018-01-27T02:50:32.769Z,42.91
2018-01-27T02:51:41.877Z,43.1
2018-01-27T02:52:50.709Z,42.72
2018-01-27T02:53:59.537Z,42.63
2018-01-27T02:55:08.365Z,43.19
2018-01-27T02:56:17.496Z,43.01
2018-01-27T02:57:26.326Z,43.01
2018-01-27T02:58:35.158Z,42.72
2018-01-27T02:59:44.040Z,42.72
2018-01-27T03:00:52.870Z,42.15
2018-01-27T03:02:01.701Z,43.01
2018-01-27T03:03:10.534Z,42.91
2018-01-27T03:04:19.366Z,42.43
2018-01-27T03:05:28.195Z,42.91
2018-01-27T03:06:37.027Z,42.43
2018-01-27T03:07:45.955Z,42.24
2018-01-27T03:08:54.786Z,42.72
2018-01-27T03:10:03.893Z,42.53
2018-01-27T03:11:12.724Z,42.53
2018-01-27T03:12:21.556Z,42.72
2018-01-27T03:13:30.488Z,42.63
2018-01-27T03:14:39.318Z,42.63
2018-01-27T03:15:48.149Z,42.24
2018-01-27T03:16:56.980Z,42.72
2018-01-27T03:18:05.812Z,42.91
2018-01-27T03:19:14.642Z,42.63
2018-01-27T03:20:23.471Z,42.72
2018-01-27T03:21:32.573Z,42.63
2018-01-27T03:22:41.402Z,42.63
2018-01-27T03:23:50.510Z,42.63
2018-01-27T03:24:59.340Z,42.72
2018-01-27T03:26:08.172Z,42.43
2018-01-27T03:27:17.002Z,42.53
2018-01-27T03:28:25.835Z,42.53
2018-01-27T03:29:34.663Z,42.34
2018-01-27T03:30:43.543Z,42.15
2018-01-27T03:31:52.397Z,42.24
2018-01-27T03:33:01.500Z,41.96
2018-01-27T03:34:10.330Z,42.15
2018-01-27T03:35:19.210Z,42.53
2018-01-27T03:36:28.391Z,41.86
2018-01-27T03:37:37.222Z,42.34
2018-01-27T03:38:46.054Z,42.43
2018-01-27T03:39:54.883Z,41.96
2018-01-27T03:41:03.716Z,42.34
2018-01-27T03:42:12.546Z,41.67
2018-01-27T03:43:21.377Z,42.05
2018-01-27T03:44:30.482Z,41.67
2018-01-27T03:45:39.313Z,42.53
2018-01-27T03:46:48.142Z,41.86
2018-01-27T03:47:57.023Z,41.77
2018-01-27T03:49:05.852Z,41.77
2018-01-27T03:50:14.685Z,41.39
2018-01-27T03:51:23.512Z,41.3
2018-01-27T03:52:32.342Z,41.11
2018-01-27T03:53:41.173Z,40.92
2018-01-27T03:54:50.004Z,40.92
2018-01-27T03:55:58.834Z,41.11
2018-01-27T03:57:07.662Z,41.3
2018-01-27T03:58:16.495Z,40.82
2018-01-27T03:59:25.474Z,40.63
2018-01-27T04:00:34.576Z,40.34
2018-01-27T04:01:43.406Z,40.34
2018-01-27T04:02:52.241Z,40.53
2018-01-27T04:04:01.342Z,40.53
2018-01-27T04:05:10.274Z,41.01
2018-01-27T04:06:19.380Z,40.72
2018-01-27T04:07:28.211Z,40.53
2018-01-27T04:08:37.042Z,41.11
2018-01-27T04:09:45.872Z,40.92
2018-01-27T04:10:54.851Z,40.92
2018-01-27T04:12:03.954Z,41.2
2018-01-27T04:13:13.058Z,40.72
2018-01-27T04:14:21.889Z,40.82
2018-01-27T04:15:30.999Z,41.2
2018-01-27T04:16:39.879Z,41.11
2018-01-27T04:17:48.709Z,40.72
2018-01-27T04:18:57.537Z,41.01
2018-01-27T04:20:06.367Z,40.72
2018-01-27T04:21:15.196Z,40.61
2018-01-27T04:22:24.027Z,40.52
2018-01-27T04:23:32.855Z,40.63
2018-01-27T04:24:41.684Z,40.44
2018-01-27T04:25:50.514Z,40.23
2018-01-27T04:26:59.346Z,40.33
2018-01-27T04:28:08.228Z,40.52
2018-01-27T04:29:17.056Z,39.95
2018-01-27T04:30:25.886Z,39.85
2018-01-27T04:31:34.717Z,39.66
2018-01-27T04:32:43.548Z,39.76
2018-01-27T04:33:52.526Z,39.47
2018-01-27T04:35:01.353Z,39.66
2018-01-27T04:36:10.184Z,39.95
2018-01-27T04:37:19.015Z,39.57
2018-01-27T04:38:27.843Z,39.37
2018-01-27T04:39:36.822Z,39.37
2018-01-27T04:40:45.651Z,39.37
2018-01-27T04:41:54.479Z,39.47
2018-01-27T04:43:03.306Z,39.37
2018-01-27T04:44:12.138Z,39.57
2018-01-27T04:45:21.067Z,39.28
2018-01-27T04:46:29.894Z,39.57
2018-01-27T04:47:38.723Z,39.37
2018-01-27T04:48:47.553Z,39.37
2018-01-27T04:49:56.381Z,39.57
2018-01-27T04:51:05.260Z,39.66
2018-01-27T04:52:14.091Z,39.47
2018-01-27T04:53:22.923Z,39.47
2018-01-27T04:54:31.752Z,39.09
2018-01-27T04:55:40.863Z,38.9
2018-01-27T04:56:49.844Z,38.9
2018-01-27T04:57:58.674Z,39.57
2018-01-27T04:59:07.504Z,38.53
2018-01-27T05:00:16.607Z,38.81
2018-01-27T05:01:25.710Z,38.71
2018-01-27T05:02:34.588Z,38.43
2018-01-27T05:03:43.418Z,38.62
2018-01-27T05:04:52.249Z,38.53
2018-01-27T05:06:01.074Z,38.62
2018-01-27T05:07:09.902Z,38.9
2018-01-27T05:08:19.032Z,38.33
2018-01-27T05:09:27.862Z,38.33
2018-01-27T05:10:36.691Z,38.71
2018-01-27T05:11:45.793Z,38.9
2018-01-27T05:12:54.896Z,38.71
2018-01-27T05:14:03.976Z,38.53
2018-01-27T05:15:12.804Z,38.62
2018-01-27T05:16:21.631Z,38.53
2018-01-27T05:17:30.459Z,38.53
2018-01-27T05:18:39.285Z,38.43
2018-01-27T05:19:48.114Z,38.62
2018-01-27T05:20:56.941Z,38.43
2018-01-27T05:22:05.771Z,38.62
2018-01-27T05:23:14.600Z,38.62
2018-01-27T05:24:23.432Z,38.53
2018-01-27T05:25:32.314Z,38.62
2018-01-27T05:26:41.410Z,38.53
2018-01-27T05:27:50.239Z,38.71
2018-01-27T05:28:59.070Z,38.71
2018-01-27T05:30:07.900Z,39
2018-01-27T05:31:16.728Z,38.62
2018-01-27T05:32:25.562Z,38.9
2018-01-27T05:33:34.386Z,38.53
2018-01-27T05:34:43.486Z,39.57
2018-01-27T05:35:52.313Z,39.95
2018-01-27T05:37:01.294Z,39.47
2018-01-27T05:38:10.122Z,39.47
2018-01-27T05:39:19.223Z,39.47
2018-01-27T05:40:28.339Z,39.47
2018-01-27T05:41:37.169Z,39.09
2018-01-27T05:42:46.049Z,39.37
2018-01-27T05:43:54.875Z,39.66
2018-01-27T05:45:03.706Z,38.81
2018-01-27T05:46:12.533Z,39.47
2018-01-27T05:47:21.364Z,39.57
2018-01-27T05:48:30.195Z,39.37
2018-01-27T05:49:39.023Z,39.66
2018-01-27T05:50:47.853Z,39.66
2018-01-27T05:51:56.682Z,39.66
2018-01-27T05:53:05.513Z,39.57
2018-01-27T05:54:14.645Z,39.66
2018-01-27T05:55:23.475Z,39.76
2018-01-27T05:56:32.304Z,39.37
2018-01-27T05:57:41.134Z,39.47
2018-01-27T05:58:49.967Z,39.37
2018-01-27T05:59:58.796Z,39.47
2018-01-27T06:01:07.627Z,39.76
2018-01-27T06:02:16.456Z,39.37
2018-01-27T06:03:25.292Z,39.47
2018-01-27T06:04:34.399Z,39.37
2018-01-27T06:05:43.529Z,39.85
2018-01-27T06:06:52.360Z,39.47
2018-01-27T06:08:01.189Z,39.47
2018-01-27T06:09:10.018Z,39
2018-01-27T06:10:18.849Z,39
2018-01-27T06:11:28.000Z,38.9
2018-01-27T06:12:36.832Z,39.37
2018-01-27T06:13:45.661Z,39.37
2018-01-27T06:14:55.032Z,39.37
2018-01-27T06:16:03.863Z,39.37
2018-01-27T06:17:12.698Z,39.28
2018-01-27T06:18:21.528Z,39.47
2018-01-27T06:19:30.358Z,39.47
2018-01-27T06:20:39.187Z,39.47
2018-01-27T06:21:48.016Z,39.47
2018-01-27T06:22:56.946Z,38.9
2018-01-27T06:24:05.780Z,39.37
2018-01-27T06:25:14.603Z,39.66
2018-01-27T06:26:23.432Z,39.47
2018-01-27T06:27:32.262Z,40.04
2018-01-27T06:28:41.669Z,39.66
2018-01-27T06:29:50.504Z,39.85
2018-01-27T06:30:59.607Z,39.57
2018-01-27T06:32:08.437Z,39.76
2018-01-27T06:33:17.547Z,39.66
2018-01-27T06:34:26.527Z,39.76
2018-01-27T06:35:35.357Z,39.47
2018-01-27T06:36:44.186Z,39.47
2018-01-27T06:37:53.016Z,39.66
2018-01-27T06:39:01.846Z,39.47
2018-01-27T06:40:10.674Z,39.37
2018-01-27T06:41:19.504Z,39.47
2018-01-27T06:42:28.334Z,39.47
2018-01-27T06:43:37.164Z,39.37
2018-01-27T06:44:45.996Z,39
2018-01-27T06:45:55.251Z,39.09
2018-01-27T06:47:04.080Z,38.9
2018-01-27T06:48:12.910Z,39.18
2018-01-27T06:49:21.740Z,39.47
2018-01-27T06:50:30.570Z,39.28
2018-01-27T06:51:39.547Z,38.9
2018-01-27T06:52:48.377Z,38.71
2018-01-27T06:53:57.486Z,38.9
2018-01-27T06:55:06.313Z,38.53
2018-01-27T06:56:15.143Z,38.53
2018-01-27T06:57:24.494Z,38.9
2018-01-27T06:58:33.324Z,38.9
2018-01-27T06:59:42.154Z,38.43
2018-01-27T07:00:50.983Z,38.9
2018-01-27T07:01:59.813Z,38.71
2018-01-27T07:03:08.792Z,38.81
2018-01-27T07:04:17.621Z,38.81
2018-01-27T07:05:26.451Z,38.53
2018-01-27T07:06:35.279Z,38.43
2018-01-27T07:07:44.111Z,38.43
2018-01-27T07:08:52.989Z,38.71
2018-01-27T07:10:01.819Z,38.33
2018-01-27T07:11:10.649Z,38.62
2018-01-27T07:12:19.481Z,38.53
2018-01-27T07:13:28.309Z,38.33
2018-01-27T07:14:37.439Z,38.53
2018-01-27T07:15:46.550Z,37.95
2018-01-27T07:16:55.381Z,37.95
2018-01-27T07:18:04.213Z,37.95
2018-01-27T07:19:13.045Z,38.43
2018-01-27T07:20:22.074Z,38.14
2018-01-27T07:21:30.904Z,37.67
2018-01-27T07:22:40.008Z,38.33
2018-01-27T07:23:48.839Z,38.43
2018-01-27T07:24:57.666Z,38.33
2018-01-27T07:26:06.495Z,38.43
2018-01-27T07:27:15.324Z,37.67
2018-01-27T07:28:24.156Z,37.86
2018-01-27T07:29:32.987Z,37.76
2018-01-27T07:30:41.817Z,38.71
2018-01-27T07:31:50.648Z,38.62
2018-01-27T07:32:59.476Z,38.62
2018-01-27T07:34:08.306Z,38.62
2018-01-27T07:35:17.137Z,38.43
2018-01-27T07:36:25.964Z,38.43
2018-01-27T07:37:34.953Z,37.76
2018-01-27T07:38:43.777Z,37.86
2018-01-27T07:39:52.608Z,38.33
2018-01-27T07:41:01.441Z,38.62
2018-01-27T07:42:10.542Z,38.33
2018-01-27T07:43:19.472Z,38.53
2018-01-27T07:44:28.300Z,38.05
2018-01-27T07:45:37.137Z,37.95
2018-01-27T07:46:45.968Z,37.38
2018-01-27T07:47:54.799Z,37.86
2018-01-27T07:49:03.682Z,37.76
2018-01-27T07:50:12.512Z,37.86
2018-01-27T07:51:21.340Z,37.67
2018-01-27T07:52:30.171Z,37.67
2018-01-27T07:53:39.002Z,37.38
2018-01-27T07:54:47.933Z,37.67
2018-01-27T07:55:56.762Z,37.76
2018-01-27T07:57:05.594Z,37.48
2018-01-27T07:58:14.702Z,37.86
2018-01-27T07:59:23.531Z,38.05
2018-01-27T08:00:32.410Z,37.86
2018-01-27T08:01:41.240Z,38.43
2018-01-27T08:02:50.072Z,37.01
2018-01-27T08:03:58.904Z,38.33
2018-01-27T08:05:07.732Z,38.43
2018-01-27T08:06:16.961Z,37.95
2018-01-27T08:07:25.788Z,37.95
2018-01-27T08:08:34.618Z,38.05
2018-01-27T08:09:43.450Z,37.86
2018-01-27T08:10:52.284Z,37.76
2018-01-27T08:12:01.264Z,37.48
2018-01-27T08:13:10.094Z,37.48
2018-01-27T08:14:18.922Z,37.48
2018-01-27T08:15:27.752Z,37.86
2018-01-27T08:16:36.585Z,37.86
2018-01-27T08:17:45.714Z,37.76
2018-01-27T08:18:54.545Z,37.76
2018-01-27T08:20:03.376Z,37.01
2018-01-27T08:21:12.211Z,36.82
2018-01-27T08:22:21.038Z,36.82
2018-01-27T08:23:30.219Z,36.72
2018-01-27T08:24:39.052Z,36.53
2018-01-27T08:25:47.883Z,36.34
2018-01-27T08:26:56.714Z,36.05
2018-01-27T08:28:05.546Z,35.86
2018-01-27T08:29:14.377Z,35.39
2018-01-27T08:30:23.205Z,35.3
2018-01-27T08:31:32.036Z,34.92
2018-01-27T08:32:40.865Z,34.63
2018-01-27T08:33:49.695Z,34.16
2018-01-27T08:34:58.623Z,34.16
2018-01-27T08:36:07.728Z,34.06
2018-01-27T08:37:16.559Z,33.78
2018-01-27T08:38:25.390Z,33.4
2018-01-27T08:39:34.219Z,33.4
2018-01-27T08:40:43.149Z,33.11
2018-01-27T08:41:51.980Z,33.21
2018-01-27T08:43:01.081Z,33.3
2018-01-27T08:44:09.918Z,33.3
2018-01-27T08:45:18.748Z,33.4
2018-01-27T08:46:27.577Z,33.4
2018-01-27T08:47:36.407Z,33.3
2018-01-27T08:48:45.237Z,33.3
2018-01-27T08:49:54.065Z,33.3
2018-01-27T08:51:02.895Z,33.78
2018-01-27T08:52:11.975Z,33.4
2018-01-27T08:53:20.806Z,33.4
2018-01-27T08:54:29.635Z,34.16
2018-01-27T08:55:38.468Z,34.25
2018-01-27T08:56:47.297Z,33.59
2018-01-27T08:57:56.436Z,33.5
2018-01-27T08:59:05.826Z,33.3
2018-01-27T09:00:14.655Z,33.4
2018-01-27T09:01:23.486Z,33.21
2018-01-27T09:02:32.315Z,33.3
2018-01-27T09:03:41.297Z,33.3
2018-01-27T09:04:50.125Z,33.4
2018-01-27T09:05:58.954Z,33.21
2018-01-27T09:07:07.784Z,32.83
2018-01-27T09:08:16.614Z,32.92
2018-01-27T09:09:25.593Z,32.73
2018-01-27T09:10:34.452Z,32.73
2018-01-27T09:11:43.256Z,32.83
2018-01-27T09:12:52.088Z,32.26
2018-01-27T09:14:00.959Z,32.07
2018-01-27T09:15:09.899Z,32.35
2018-01-27T09:16:18.728Z,32.07
2018-01-27T09:17:27.560Z,31.5
2018-01-27T09:18:36.393Z,31.21
2018-01-27T09:19:45.502Z,31.21
2018-01-27T09:20:54.334Z,31.02
2018-01-27T09:22:03.164Z,30.93
2018-01-27T09:23:11.994Z,30.74
2018-01-27T09:24:20.824Z,30.65
2018-01-27T09:25:29.653Z,30.74
2018-01-27T09:26:38.638Z,30.55
2018-01-27T09:27:47.469Z,30.83
2018-01-27T09:28:56.304Z,30.65
2018-01-27T09:30:05.139Z,30.74
2018-01-27T09:31:13.972Z,30.74
2018-01-27T09:32:22.804Z,30.83
2018-01-27T09:33:31.636Z,30.74
2018-01-27T09:34:40.468Z,30.83
2018-01-27T09:35:49.303Z,30.83
2018-01-27T09:36:58.137Z,31.12
2018-01-27T09:38:07.116Z,31.02
2018-01-27T09:39:15.945Z,31.02
2018-01-27T09:40:24.775Z,32.07
2018-01-27T09:41:33.877Z,32.17
2018-01-27T09:42:42.714Z,31.79
2018-01-27T09:43:51.815Z,32.64
2018-01-27T09:45:00.647Z,32.83
2018-01-27T09:46:09.481Z,31.6
2018-01-27T09:47:18.312Z,32.17
2018-01-27T09:48:27.141Z,32.17
2018-01-27T09:49:36.123Z,32.54
2018-01-27T09:50:44.954Z,32.73
2018-01-27T09:51:53.784Z,33.11
2018-01-27T09:53:02.613Z,33.21
2018-01-27T09:54:11.442Z,32.54
2018-01-27T09:55:20.291Z,33.02
2018-01-27T09:56:29.142Z,33.11
2018-01-27T09:57:37.974Z,32.73
2018-01-27T09:58:46.803Z,32.92
2018-01-27T09:59:55.634Z,32.54
2018-01-27T10:01:04.769Z,33.11
2018-01-27T10:02:13.597Z,32.83
2018-01-27T10:03:22.446Z,33.21
2018-01-27T10:04:31.260Z,33.98
2018-01-27T10:05:40.090Z,33.78
2018-01-27T10:06:48.921Z,34.16
2018-01-27T10:07:57.748Z,33.69
2018-01-27T10:09:06.578Z,33.78
2018-01-27T10:10:15.409Z,33.5
2018-01-27T10:11:24.240Z,33.61
2018-01-27T10:12:33.172Z,33.8
2018-01-27T10:13:42.002Z,34.36
2018-01-27T10:14:51.108Z,34.27
2018-01-27T10:15:59.938Z,34.94
2018-01-27T10:17:08.769Z,35.88
2018-01-27T10:18:17.598Z,35.69
2018-01-27T10:19:26.429Z,36.93
2018-01-27T10:20:35.259Z,37.78
2018-01-27T10:21:44.107Z,39.49
2018-01-27T10:22:53.214Z,38.64
2018-01-27T10:24:02.318Z,39.11
2018-01-27T10:25:11.150Z,40.34
2018-01-27T10:26:19.983Z,40.92
2018-01-27T10:27:28.815Z,41.2
2018-01-27T10:28:37.647Z,41.39
2018-01-27T10:29:46.580Z,44.24
2018-01-27T10:30:55.414Z,43.48
2018-01-27T10:32:04.247Z,44.81
2018-01-27T10:33:13.080Z,46.83
2018-01-27T10:34:21.917Z,48.06
2018-01-27T10:35:30.899Z,49.1
2018-01-27T10:36:39.732Z,49.1
2018-01-27T10:37:48.561Z,49.58
2018-01-27T10:38:57.393Z,51.29
2018-01-27T10:40:06.222Z,51.67
2018-01-27T10:41:15.105Z,52.72
2018-01-27T10:42:23.939Z,51.95
2018-01-27T10:43:32.772Z,53.66
2018-01-27T10:44:41.885Z,54.99
2018-01-27T10:45:50.715Z,55.66
2018-01-27T10:46:59.547Z,53.66
2018-01-27T10:48:08.379Z,53.85
2018-01-27T10:49:17.210Z,57.94
2018-01-27T10:50:26.042Z,60.03
2018-01-27T10:51:34.872Z,59.08
2018-01-27T10:52:43.754Z,59.36
2018-01-27T10:53:52.593Z,58.8
2018-01-27T10:55:01.432Z,58.89
2018-01-27T10:56:10.301Z,62.02
2018-01-27T10:57:19.131Z,64.02
2018-01-27T10:58:27.963Z,63.64
2018-01-27T10:59:37.070Z,62.12
2018-01-27T11:00:45.904Z,60.31
2018-01-27T11:01:54.737Z,61.74
2018-01-27T11:03:03.720Z,60.98
2018-01-27T11:04:12.552Z,61.17
2018-01-27T11:05:21.385Z,61.65
2018-01-27T11:06:30.267Z,62.97
2018-01-27T11:07:39.050Z,62.31
2018-01-27T11:08:47.881Z,62.21
2018-01-27T11:09:56.714Z,63.35
2018-01-27T11:11:05.544Z,62.88
2018-01-27T11:12:14.377Z,63.07
2018-01-27T11:13:23.207Z,64.49
2018-01-27T11:14:32.313Z,64.87
2018-01-27T11:15:41.145Z,65.16
2018-01-27T11:16:49.977Z,66.2
2018-01-27T11:17:58.810Z,66.87
2018-01-27T11:19:07.643Z,66.2
2018-01-27T11:20:16.476Z,65.44
2018-01-27T11:21:25.308Z,65.82
2018-01-27T11:22:34.140Z,65.44
2018-01-27T11:23:43.301Z,66.01
2018-01-27T11:24:52.417Z,65.35
2018-01-27T11:26:01.241Z,66.87
2018-01-27T11:27:10.075Z,66.77
2018-01-27T11:28:18.902Z,67.06
2018-01-27T11:29:27.750Z,66.77
2018-01-27T11:30:36.563Z,66.58
2018-01-27T11:31:45.392Z,66.87
2018-01-27T11:32:54.223Z,66.87
2018-01-27T11:34:03.060Z,66.87
2018-01-27T11:35:11.998Z,66.58
2018-01-27T11:36:20.838Z,66.2
2018-01-27T11:37:29.677Z,66.11
2018-01-27T11:38:38.517Z,65.73
2018-01-27T11:39:47.358Z,65.44
2018-01-27T11:40:56.201Z,66.11
2018-01-27T11:42:05.040Z,65.73
2018-01-27T11:43:13.880Z,66.11
2018-01-27T11:44:22.718Z,66.3
2018-01-27T11:45:31.559Z,66.01
2018-01-27T11:46:40.450Z,65.73
2018-01-27T11:47:49.293Z,66.3
2018-01-27T11:48:58.137Z,65.25
2018-01-27T11:50:06.979Z,66.11
2018-01-27T11:51:15.822Z,66.01
2018-01-27T11:52:24.663Z,66.2
2018-01-27T11:53:33.514Z,67.72
2018-01-27T11:54:42.623Z,68.29
2018-01-27T11:55:51.462Z,68.29
2018-01-27T11:57:00.303Z,68.96
2018-01-27T11:58:09.138Z,69.34
2018-01-27T11:59:18.242Z,69.24
2018-01-27T12:00:27.077Z,70.19
2018-01-27T12:01:35.907Z,71.23
2018-01-27T12:02:44.738Z,71.81
2018-01-27T12:03:53.573Z,72.19
2018-01-27T12:05:02.428Z,71.52
2018-01-27T12:06:11.263Z,73.23
2018-01-27T12:07:20.446Z,74.85
2018-01-27T12:08:29.555Z,75.42
2018-01-27T12:09:38.387Z,75.13
2018-01-27T12:10:47.263Z,77.03
2018-01-27T12:11:56.053Z,77.79
2018-01-27T12:13:04.902Z,79.31
2018-01-27T12:14:13.784Z,77.6
2018-01-27T12:15:22.618Z,78.74
2018-01-27T12:16:31.726Z,80.26
2018-01-27T12:17:40.558Z,79.5
2018-01-27T12:18:49.399Z,79.41
2018-01-27T12:19:58.231Z,81.68
2018-01-27T12:21:07.164Z,81.3
2018-01-27T12:22:15.997Z,82.07
2018-01-27T12:23:24.830Z,81.4
2018-01-27T12:24:33.663Z,81.4
2018-01-27T12:25:42.495Z,82.07
2018-01-27T12:26:51.436Z,82.07
2018-01-27T12:28:00.265Z,82.26
2018-01-27T12:29:09.098Z,83.01
2018-01-27T12:30:17.934Z,81.97
2018-01-27T12:31:26.775Z,84.25
2018-01-27T12:32:35.756Z,87.1
2018-01-27T12:33:44.860Z,88.53
2018-01-27T12:34:53.691Z,88.34
2018-01-27T12:36:02.525Z,88.62
2018-01-27T12:37:11.356Z,92.42
2018-01-27T12:38:20.338Z,92.13
2018-01-27T12:39:29.172Z,91.09
2018-01-27T12:40:38.011Z,91.85
2018-01-27T12:41:46.843Z,92.42
2018-01-27T12:42:55.675Z,92.23
2018-01-27T12:44:05.077Z,90.9
2018-01-27T12:45:13.907Z,92.71
2018-01-27T12:46:22.739Z,91.47
2018-01-27T12:47:31.570Z,92.9
2018-01-27T12:48:40.402Z,93.08
2018-01-27T12:49:49.236Z,93.84
2018-01-27T12:50:58.070Z,92.9
2018-01-27T12:52:06.902Z,94.89
2018-01-27T12:53:15.734Z,95.08
2018-01-27T12:54:24.564Z,94.23
2018-01-27T12:55:33.694Z,96.03
2018-01-27T12:56:42.524Z,94.7
2018-01-27T12:57:51.356Z,95.08
2018-01-27T12:59:00.190Z,96.12
2018-01-27T13:00:09.069Z,95.84
2018-01-27T13:01:18.413Z,96.22
2018-01-27T13:02:27.245Z,96.31
2018-01-27T13:03:36.074Z,95.08
2018-01-27T13:04:45.454Z,95.55
2018-01-27T13:05:54.566Z,95.55
2018-01-27T13:07:03.397Z,96.12
2018-01-27T13:08:12.504Z,95.84
2018-01-27T13:09:21.331Z,95.84
2018-01-27T13:10:30.165Z,96.5
2018-01-27T13:11:39.085Z,96.12
2018-01-27T13:12:48.081Z,96.03
2018-01-27T13:13:56.941Z,94.98
2018-01-27T13:15:05.788Z,95.75
2018-01-27T13:16:14.909Z,94.32
2018-01-27T13:17:23.751Z,94.79
2018-01-27T13:18:32.731Z,94.89
2018-01-27T13:19:41.563Z,94.79
2018-01-27T13:20:50.393Z,94.89
2018-01-27T13:21:59.227Z,94.7
2018-01-27T13:23:08.057Z,94.03
2018-01-27T13:24:17.041Z,94.51
2018-01-27T13:25:25.881Z,94.51
2018-01-27T13:26:34.712Z,94.6
2018-01-27T13:27:43.544Z,93.84
2018-01-27T13:28:52.377Z,93.94
2018-01-27T13:30:01.558Z,93.65
2018-01-27T13:31:10.391Z,93.65
2018-01-27T13:32:19.222Z,92.9
2018-01-27T13:33:28.331Z,93.37
2018-01-27T13:34:37.162Z,93.08
2018-01-27T13:35:45.995Z,93.37
2018-01-27T13:36:54.824Z,92.71
2018-01-27T13:38:03.694Z,93.37
2018-01-27T13:39:12.526Z,92.51
2018-01-27T13:40:21.382Z,92.9
2018-01-27T13:41:30.195Z,93.27
2018-01-27T13:42:39.897Z,92.99
2018-01-27T13:43:48.760Z,92.9
2018-01-27T13:44:57.594Z,93.46
2018-01-27T13:46:06.431Z,93.75
2018-01-27T13:47:15.589Z,94.89
2018-01-27T13:48:24.740Z,93.37
2018-01-27T13:49:33.842Z,93.56
2018-01-27T13:50:42.965Z,93.37
2018-01-27T13:51:52.361Z,94.6
2018-01-27T13:53:01.403Z,92.99
2018-01-27T13:54:10.237Z,94.79
2018-01-27T13:55:19.121Z,94.23
2018-01-27T13:56:28.435Z,93.56
2018-01-27T13:57:37.617Z,94.51
2018-01-27T13:58:46.453Z,94.98
2018-01-27T13:59:55.290Z,94.6
2018-01-27T14:01:04.127Z,94.98
2018-01-27T14:02:13.337Z,94.98
2018-01-27T14:03:22.188Z,94.13
2018-01-27T14:04:31.049Z,94.7
2018-01-27T14:05:40.660Z,94.42
2018-01-27T14:06:49.543Z,94.98
2018-01-27T14:07:58.394Z,94.51
2018-01-27T14:09:07.232Z,94.42
2018-01-27T14:10:16.063Z,94.42
2018-01-27T14:11:25.184Z,94.89
2018-01-27T14:12:34.016Z,94.42
2018-01-27T14:13:42.847Z,94.42
2018-01-27T14:14:51.956Z,94.32
2018-01-27T14:16:00.788Z,94.32
2018-01-27T14:17:09.622Z,95.08
2018-01-27T14:18:18.454Z,94.89
2018-01-27T14:19:27.287Z,96.69
2018-01-27T14:20:36.119Z,96.12
2018-01-27T14:21:44.951Z,96.88
2018-01-27T14:22:53.800Z,96.41
2018-01-27T14:24:02.640Z,96.08
2018-01-27T14:25:11.488Z,96.93
2018-01-27T14:26:20.329Z,97.6
2018-01-27T14:27:29.495Z,97.31
2018-01-27T14:28:38.354Z,96.83
2018-01-27T14:29:47.185Z,97.41
2018-01-27T14:30:56.296Z,97.41
2018-01-27T14:32:05.128Z,97.41
2018-01-27T14:33:13.970Z,97.22
2018-01-27T14:34:22.807Z,97.69
2018-01-27T14:35:31.646Z,97.41
2018-01-27T14:36:40.746Z,97.97
2018-01-27T14:37:49.581Z,97.97
2018-01-27T14:38:58.412Z,97.12
2018-01-27T14:40:07.244Z,97.97
2018-01-27T14:41:16.077Z,97.78
2018-01-27T14:42:24.908Z,97.88
2018-01-27T14:43:33.844Z,98.16
2018-01-27T14:44:42.993Z,98.07
2018-01-27T14:45:51.826Z,97.97
2018-01-27T14:47:00.926Z,98.16
2018-01-27T14:48:09.756Z,98.16
2018-01-27T14:49:18.590Z,98.16
2018-01-27T14:50:27.995Z,98.16